createdAt,value
2017-10-27T00:00:08.365Z,70.82
2017-10-27T00:01:08.366Z,70.92
2017-10-27T00:02:08.365Z,71.11
2017-10-27T00:03:08.365Z,71.45
2017-10-27T00:04:08.364Z,71.36
2017-10-27T00:05:08.373Z,71.73
2017-10-27T00:06:08.365Z,71.45
2017-10-27T00:07:08.366Z,71.07
2017-10-27T00:08:08.366Z,71.07
2017-10-27T00:09:08.365Z,71.17
2017-10-27T00:10:08.367Z,71.26
2017-10-27T00:11:08.417Z,71.45
2017-10-27T00:12:08.366Z,71.73
2017-10-27T00:13:08.366Z,71.73
2017-10-27T00:14:08.368Z,72.41
2017-10-27T00:15:08.367Z,72.12
2017-10-27T00:16:08.367Z,72.02
2017-10-27T00:17:08.366Z,71.83
2017-10-27T00:18:08.367Z,71.55
2017-10-27T00:19:08.367Z,72.02
2017-10-27T00:20:08.366Z,72.12
2017-10-27T00:21:08.367Z,72.21
2017-10-27T00:22:08.367Z,71.55
2017-10-27T00:23:08.367Z,71.55
2017-10-27T00:24:08.366Z,70.78
2017-10-27T00:25:08.376Z,71.07
2017-10-27T00:26:08.367Z,70.59
2017-10-27T00:27:08.367Z,70.21
2017-10-27T00:28:08.367Z,70.40
2017-10-27T00:29:08.367Z,71.26
2017-10-27T00:30:08.368Z,71.36
2017-10-27T00:31:08.367Z,72.12
2017-10-27T00:32:08.367Z,71.64
2017-10-27T00:33:08.367Z,72.02
2017-10-27T00:34:08.366Z,71.93
2017-10-27T00:35:08.369Z,71.93
2017-10-27T00:36:08.367Z,71.73
2017-10-27T00:37:08.368Z,70.97
2017-10-27T00:38:08.368Z,70.88
2017-10-27T00:39:08.370Z,70.40
2017-10-27T00:40:08.367Z,70.59
2017-10-27T00:41:08.368Z,70.78
2017-10-27T00:42:08.366Z,70.31
2017-10-27T00:43:08.366Z,69.93
2017-10-27T00:44:08.366Z,69.68
2017-10-27T00:45:08.366Z,69.77
2017-10-27T00:46:08.367Z,69.87
2017-10-27T00:47:08.369Z,69.87
2017-10-27T00:48:08.415Z,69.77
2017-10-27T00:49:08.416Z,69.26
2017-10-27T00:50:08.366Z,69.39
2017-10-27T00:51:08.367Z,69.77
2017-10-27T00:52:08.367Z,69.10
2017-10-27T00:53:08.367Z,69.48
2017-10-27T00:54:08.365Z,69.39
2017-10-27T00:55:08.372Z,69.77
2017-10-27T00:56:08.367Z,68.91
2017-10-27T00:57:08.366Z,69.48
2017-10-27T00:58:08.367Z,69.29
2017-10-27T00:59:08.368Z,69.20
2017-10-27T01:00:08.366Z,69.01
2017-10-27T01:01:08.366Z,69.20
2017-10-27T01:02:08.367Z,69.20
2017-10-27T01:03:08.366Z,69.74
2017-10-27T01:04:08.366Z,69.07
2017-10-27T01:05:08.366Z,69.45
2017-10-27T01:06:08.368Z,69.93
2017-10-27T01:07:08.367Z,69.64
2017-10-27T01:08:08.416Z,70.02
2017-10-27T01:09:08.367Z,70.78
2017-10-27T01:10:08.366Z,70.50
2017-10-27T01:11:08.367Z,70.78
2017-10-27T01:12:08.366Z,70.50
2017-10-27T01:13:08.367Z,70.40
2017-10-27T01:14:08.366Z,70.78
2017-10-27T01:15:08.369Z,70.69
2017-10-27T01:16:08.367Z,70.12
2017-10-27T01:17:08.367Z,70.40
2017-10-27T01:18:08.366Z,70.50
2017-10-27T01:19:08.367Z,70.02
2017-10-27T01:20:08.366Z,70.02
2017-10-27T01:21:08.366Z,70.12
2017-10-27T01:22:08.367Z,69.64
2017-10-27T01:23:08.366Z,69.93
2017-10-27T01:24:08.416Z,69.64
2017-10-27T01:25:08.365Z,69.93
2017-10-27T01:26:08.365Z,69.93
2017-10-27T01:27:08.366Z,70.02
2017-10-27T01:28:08.365Z,69.93
2017-10-27T01:29:08.365Z,70.02
2017-10-27T01:30:08.364Z,70.02
2017-10-27T01:31:08.365Z,70.31
2017-10-27T01:32:08.363Z,70.59
2017-10-27T01:33:08.364Z,70.50
2017-10-27T01:34:08.365Z,70.40
2017-10-27T01:35:08.364Z,70.69
2017-10-27T01:36:08.364Z,70.31
2017-10-27T01:37:08.364Z,70.59
2017-10-27T01:38:08.364Z,70.78
2017-10-27T01:39:08.365Z,70.59
2017-10-27T01:40:08.362Z,70.12
2017-10-27T01:41:08.362Z,70.21
2017-10-27T01:42:08.364Z,70.69
2017-10-27T01:43:08.362Z,69.93
2017-10-27T01:44:08.361Z,69.93
2017-10-27T01:45:08.362Z,69.93
2017-10-27T01:46:08.362Z,69.93
2017-10-27T01:47:08.362Z,69.64
2017-10-27T01:48:08.361Z,69.93
2017-10-27T01:49:08.360Z,69.93
2017-10-27T01:50:08.361Z,69.93
2017-10-27T01:51:08.363Z,69.35
2017-10-27T01:52:08.410Z,69.45
2017-10-27T01:53:08.359Z,69.45
2017-10-27T01:54:08.360Z,69.17
2017-10-27T01:55:08.359Z,69.54
2017-10-27T01:56:08.360Z,69.45
2017-10-27T01:57:08.360Z,69.45
2017-10-27T01:58:08.361Z,69.45
2017-10-27T01:59:08.360Z,69.07
2017-10-27T02:00:08.359Z,69.54
2017-10-27T02:01:08.359Z,69.64
2017-10-27T02:02:08.359Z,69.54
2017-10-27T02:03:08.359Z,69.26
2017-10-27T02:04:08.359Z,69.74
2017-10-27T02:05:08.358Z,69.45
2017-10-27T02:06:08.358Z,69.54
2017-10-27T02:07:08.408Z,69.74
2017-10-27T02:08:08.358Z,69.83
2017-10-27T02:09:08.357Z,70.40
2017-10-27T02:10:08.357Z,69.64
2017-10-27T02:11:08.358Z,69.74
2017-10-27T02:12:08.356Z,69.45
2017-10-27T02:13:08.358Z,69.74
2017-10-27T02:14:08.356Z,69.93
2017-10-27T02:15:08.360Z,70.02
2017-10-27T02:16:08.357Z,70.31
2017-10-27T02:17:08.354Z,70.50
2017-10-27T02:18:08.355Z,69.93
2017-10-27T02:19:08.355Z,69.64
2017-10-27T02:20:08.404Z,69.54
2017-10-27T02:21:08.354Z,69.74
2017-10-27T02:22:08.355Z,69.64
2017-10-27T02:23:08.354Z,69.64
2017-10-27T02:24:08.353Z,70.12
2017-10-27T02:25:08.356Z,69.64
2017-10-27T02:26:08.354Z,69.64
2017-10-27T02:27:08.354Z,69.64
2017-10-27T02:28:08.353Z,69.54
2017-10-27T02:29:08.353Z,69.64
2017-10-27T02:30:08.409Z,69.64
2017-10-27T02:31:08.353Z,69.74
2017-10-27T02:32:08.352Z,70.21
2017-10-27T02:33:08.352Z,70.59
2017-10-27T02:34:08.352Z,71.26
2017-10-27T02:35:08.402Z,70.69
2017-10-27T02:36:08.351Z,70.59
2017-10-27T02:37:08.351Z,70.40
2017-10-27T02:38:08.351Z,70.21
2017-10-27T02:39:08.353Z,70.78
2017-10-27T02:40:08.355Z,70.59
2017-10-27T02:41:08.354Z,70.69
2017-10-27T02:42:08.351Z,70.59
2017-10-27T02:43:08.352Z,71.26
2017-10-27T02:44:08.353Z,70.50
2017-10-27T02:45:08.350Z,71.26
2017-10-27T02:46:08.350Z,70.12
2017-10-27T02:47:08.351Z,70.12
2017-10-27T02:48:08.351Z,69.64
2017-10-27T02:49:08.349Z,69.45
2017-10-27T02:50:08.351Z,69.45
2017-10-27T02:51:08.349Z,69.74
2017-10-27T02:52:08.350Z,69.54
2017-10-27T02:53:08.350Z,69.26
2017-10-27T02:54:08.356Z,68.98
2017-10-27T02:55:08.351Z,68.98
2017-10-27T02:56:08.349Z,69.68
2017-10-27T02:57:08.349Z,68.34
2017-10-27T02:58:08.400Z,68.34
2017-10-27T02:59:08.349Z,68.44
2017-10-27T03:00:08.648Z,68.34
2017-10-27T03:01:08.348Z,68.59
2017-10-27T03:02:08.349Z,69.29
2017-10-27T03:03:08.349Z,69.68
2017-10-27T03:04:08.398Z,69.39
2017-10-27T03:05:08.349Z,68.72
2017-10-27T03:06:08.398Z,69.48
2017-10-27T03:07:08.362Z,70.06
2017-10-27T03:08:08.348Z,70.15
2017-10-27T03:09:08.348Z,70.44
2017-10-27T03:10:08.350Z,70.63
2017-10-27T03:11:08.348Z,69.87
2017-10-27T03:12:08.349Z,69.77
2017-10-27T03:13:08.349Z,69.77
2017-10-27T03:14:08.348Z,70.53
2017-10-27T03:15:08.349Z,70.82
2017-10-27T03:16:08.352Z,70.15
2017-10-27T03:17:08.349Z,68.63
2017-10-27T03:18:08.349Z,70.92
2017-10-27T03:19:08.350Z,69.96
2017-10-27T03:20:08.351Z,69.48
2017-10-27T03:21:08.349Z,68.91
2017-10-27T03:22:08.350Z,68.72
2017-10-27T03:23:08.351Z,68.63
2017-10-27T03:24:08.350Z,68.72
2017-10-27T03:25:08.350Z,70.25
2017-10-27T03:26:08.351Z,71.48
2017-10-27T03:27:08.352Z,71.77
2017-10-27T03:28:08.351Z,72.25
2017-10-27T03:29:08.351Z,71.87
2017-10-27T03:30:08.360Z,72.44
2017-10-27T03:31:08.353Z,72.72
2017-10-27T03:32:08.351Z,73.68
2017-10-27T03:33:08.352Z,73.96
2017-10-27T03:34:08.353Z,74.54
2017-10-27T03:35:08.354Z,73.96
2017-10-27T03:36:08.354Z,74.16
2017-10-27T03:37:08.353Z,74.16
2017-10-27T03:38:08.353Z,73.87
2017-10-27T03:39:08.354Z,73.39
2017-10-27T03:40:08.353Z,73.21
2017-10-27T03:41:08.353Z,73.21
2017-10-27T03:42:08.355Z,73.49
2017-10-27T03:43:08.354Z,71.81
2017-10-27T03:44:08.354Z,69.56
2017-10-27T03:45:08.354Z,68.35
2017-10-27T03:46:08.356Z,67.68
2017-10-27T03:47:08.405Z,65.71
2017-10-27T03:48:08.354Z,65.52
2017-10-27T03:49:08.354Z,65.14
2017-10-27T03:50:08.354Z,64.56
2017-10-27T03:51:08.355Z,64.37
2017-10-27T03:52:08.355Z,64.78
2017-10-27T03:53:08.360Z,63.99
2017-10-27T03:54:08.356Z,63.83
2017-10-27T03:55:08.357Z,64.12
2017-10-27T03:56:08.357Z,63.45
2017-10-27T03:57:08.357Z,62.90
2017-10-27T03:58:08.357Z,63.16
2017-10-27T03:59:08.358Z,63.19
2017-10-27T04:00:08.409Z,63.00
2017-10-27T04:01:08.358Z,62.33
2017-10-27T04:02:08.358Z,62.81
2017-10-27T04:03:08.360Z,62.81
2017-10-27T04:04:08.416Z,62.81
2017-10-27T04:05:08.361Z,62.33
2017-10-27T04:06:08.362Z,62.43
2017-10-27T04:07:08.363Z,62.08
2017-10-27T04:08:08.363Z,61.60
2017-10-27T04:09:08.363Z,61.98
2017-10-27T04:10:08.365Z,61.79
2017-10-27T04:11:08.365Z,62.37
2017-10-27T04:12:08.367Z,61.88
2017-10-27T04:13:08.366Z,62.17
2017-10-27T04:14:08.368Z,62.30
2017-10-27T04:15:08.371Z,62.11
2017-10-27T04:16:08.370Z,62.01
2017-10-27T04:17:08.374Z,61.63
2017-10-27T04:18:08.372Z,62.11
2017-10-27T04:19:08.375Z,61.69
2017-10-27T04:20:08.374Z,61.72
2017-10-27T04:21:08.375Z,62.01
2017-10-27T04:22:08.377Z,62.20
2017-10-27T04:23:08.377Z,62.30
2017-10-27T04:24:08.379Z,61.82
2017-10-27T04:25:08.379Z,61.82
2017-10-27T04:26:08.430Z,61.25
2017-10-27T04:27:08.383Z,60.77
2017-10-27T04:28:08.383Z,59.72
2017-10-27T04:29:08.386Z,61.15
2017-10-27T04:30:08.387Z,61.79
2017-10-27T04:31:08.388Z,62.17
2017-10-27T04:32:08.387Z,62.01
2017-10-27T04:33:08.390Z,62.49
2017-10-27T04:34:08.390Z,61.91
2017-10-27T04:35:08.396Z,62.49
2017-10-27T04:36:08.395Z,62.49
2017-10-27T04:37:08.396Z,62.68
2017-10-27T04:38:08.398Z,61.72
2017-10-27T04:39:08.401Z,61.57
2017-10-27T04:40:08.400Z,61.57
2017-10-27T04:41:08.402Z,61.18
2017-10-27T04:42:08.404Z,61.08
2017-10-27T04:43:08.407Z,60.99
2017-10-27T04:44:08.415Z,61.28
2017-10-27T04:45:08.408Z,61.47
2017-10-27T04:46:08.412Z,61.94
2017-10-27T04:47:08.412Z,61.85
2017-10-27T04:48:08.413Z,61.85
2017-10-27T04:49:08.418Z,62.52
2017-10-27T04:50:08.417Z,62.33
2017-10-27T04:51:08.419Z,62.62
2017-10-27T04:52:08.420Z,63.29
2017-10-27T04:53:08.422Z,63.39
2017-10-27T04:54:08.424Z,64.72
2017-10-27T04:55:08.431Z,66.35
2017-10-27T04:56:08.427Z,67.37
2017-10-27T04:57:08.430Z,67.37
2017-10-27T04:58:08.432Z,68.52
2017-10-27T04:59:08.435Z,69.35
2017-10-27T05:00:08.435Z,69.95
2017-10-27T05:01:08.437Z,70.21
2017-10-27T05:02:08.440Z,70.50
2017-10-27T05:03:08.446Z,70.50
2017-10-27T05:04:08.493Z,71.55
2017-10-27T05:05:08.444Z,73.27
2017-10-27T05:06:08.446Z,73.65
2017-10-27T05:07:08.447Z,73.08
2017-10-27T05:08:08.450Z,73.36
2017-10-27T05:09:08.455Z,73.94
2017-10-27T05:10:08.455Z,73.36
2017-10-27T05:11:08.506Z,74.13
2017-10-27T05:12:08.456Z,73.65
2017-10-27T05:13:08.457Z,73.17
2017-10-27T05:14:08.460Z,73.55
2017-10-27T05:15:08.463Z,73.75
2017-10-27T05:16:08.463Z,73.27
2017-10-27T05:17:08.465Z,73.46
2017-10-27T05:18:08.466Z,74.13
2017-10-27T05:19:08.468Z,74.80
2017-10-27T05:20:08.469Z,77.19
2017-10-27T05:21:08.522Z,78.43
2017-10-27T05:22:08.474Z,78.87
2017-10-27T05:23:08.474Z,78.39
2017-10-27T05:24:08.474Z,79.25
2017-10-27T05:25:08.478Z,79.44
2017-10-27T05:26:08.480Z,78.39
2017-10-27T05:27:08.481Z,79.25
2017-10-27T05:28:08.480Z,79.54
2017-10-27T05:29:08.483Z,79.73
2017-10-27T05:30:08.494Z,78.39
2017-10-27T05:31:08.537Z,78.68
2017-10-27T05:32:08.538Z,78.68
2017-10-27T05:33:08.489Z,79.25
2017-10-27T05:34:08.492Z,79.64
2017-10-27T05:35:08.494Z,78.49
2017-10-27T05:36:08.492Z,78.78
2017-10-27T05:37:08.495Z,79.35
2017-10-27T05:38:08.496Z,78.49
2017-10-27T05:39:08.499Z,78.20
2017-10-27T05:40:08.499Z,78.53
2017-10-27T05:41:08.501Z,78.24
2017-10-27T05:42:08.502Z,76.81
2017-10-27T05:43:08.505Z,77.28
2017-10-27T05:44:08.505Z,77.57
2017-10-27T05:45:08.506Z,78.24
2017-10-27T05:46:08.508Z,77.57
2017-10-27T05:47:08.510Z,77.86
2017-10-27T05:48:08.510Z,77.00
2017-10-27T05:49:08.513Z,77.09
2017-10-27T05:50:08.514Z,76.33
2017-10-27T05:51:08.517Z,76.14
2017-10-27T05:52:08.516Z,76.33
2017-10-27T05:53:08.568Z,76.71
2017-10-27T05:54:08.522Z,76.90
2017-10-27T05:55:08.522Z,76.04
2017-10-27T05:56:08.525Z,76.23
2017-10-27T05:57:08.525Z,76.04
2017-10-27T05:58:08.527Z,75.76
2017-10-27T05:59:08.529Z,76.33
2017-10-27T06:00:08.530Z,76.14
2017-10-27T06:01:08.530Z,76.04
2017-10-27T06:02:08.532Z,76.33
2017-10-27T06:03:08.535Z,76.23
2017-10-27T06:04:08.536Z,76.81
2017-10-27T06:05:08.537Z,75.95
2017-10-27T06:06:08.540Z,76.33
2017-10-27T06:07:08.541Z,76.42
2017-10-27T06:08:08.542Z,75.76
2017-10-27T06:09:08.545Z,75.66
2017-10-27T06:10:08.545Z,75.85
2017-10-27T06:11:08.549Z,76.33
2017-10-27T06:12:08.549Z,75.56
2017-10-27T06:13:08.550Z,75.47
2017-10-27T06:14:08.553Z,75.27
2017-10-27T06:15:08.554Z,75.66
2017-10-27T06:16:08.556Z,75.37
2017-10-27T06:17:08.557Z,75.18
2017-10-27T06:18:08.559Z,75.27
2017-10-27T06:19:08.561Z,75.37
2017-10-27T06:20:08.563Z,75.85
2017-10-27T06:21:08.613Z,75.56
2017-10-27T06:22:08.577Z,76.04
2017-10-27T06:23:08.569Z,75.47
2017-10-27T06:24:08.568Z,75.76
2017-10-27T06:25:08.571Z,75.66
2017-10-27T06:26:08.573Z,75.76
2017-10-27T06:27:08.575Z,75.37
2017-10-27T06:28:08.575Z,75.09
2017-10-27T06:29:08.579Z,75.85
2017-10-27T06:30:08.579Z,75.18
2017-10-27T06:31:08.585Z,75.18
2017-10-27T06:32:08.583Z,74.51
2017-10-27T06:33:08.593Z,74.32
2017-10-27T06:34:08.586Z,74.51
2017-10-27T06:35:08.588Z,74.13
2017-10-27T06:36:08.589Z,74.22
2017-10-27T06:37:08.593Z,74.41
2017-10-27T06:38:08.593Z,74.61
2017-10-27T06:39:08.596Z,75.27
2017-10-27T06:40:08.596Z,75.18
2017-10-27T06:41:08.598Z,74.80
2017-10-27T06:42:08.599Z,74.90
2017-10-27T06:43:08.602Z,75.56
2017-10-27T06:44:08.603Z,74.41
2017-10-27T06:45:08.605Z,74.90
2017-10-27T06:46:08.607Z,75.18
2017-10-27T06:47:08.610Z,74.99
2017-10-27T06:48:08.610Z,75.09
2017-10-27T06:49:08.616Z,75.47
2017-10-27T06:50:08.613Z,75.37
2017-10-27T06:51:08.616Z,75.85
2017-10-27T06:52:08.620Z,75.56
2017-10-27T06:53:08.618Z,76.23
2017-10-27T06:54:08.668Z,75.66
2017-10-27T06:55:08.624Z,75.37
2017-10-27T06:56:08.625Z,76.52
2017-10-27T06:57:08.626Z,75.66
2017-10-27T06:58:08.627Z,76.04
2017-10-27T06:59:08.629Z,75.95
2017-10-27T07:00:08.631Z,76.48
2017-10-27T07:01:08.633Z,76.48
2017-10-27T07:02:08.635Z,76.42
2017-10-27T07:03:08.689Z,76.57
2017-10-27T07:04:08.636Z,76.77
2017-10-27T07:05:08.640Z,77.67
2017-10-27T07:06:08.641Z,77.63
2017-10-27T07:07:08.644Z,78.58
2017-10-27T07:08:08.648Z,78.49
2017-10-27T07:09:08.649Z,79.73
2017-10-27T07:10:08.649Z,79.83
2017-10-27T07:11:08.650Z,80.50
2017-10-27T07:12:08.702Z,80.98
2017-10-27T07:13:08.651Z,81.45
2017-10-27T07:14:08.654Z,82.22
2017-10-27T07:15:08.657Z,82.65
2017-10-27T07:16:08.657Z,83.46
2017-10-27T07:17:08.658Z,83.65
2017-10-27T07:18:08.664Z,84.85
2017-10-27T07:19:08.662Z,85.14
2017-10-27T07:20:08.664Z,85.05
2017-10-27T07:21:08.667Z,86.47
2017-10-27T07:22:08.666Z,86.72
2017-10-27T07:23:08.668Z,87.29
2017-10-27T07:24:08.669Z,88.34
2017-10-27T07:25:08.670Z,89.59
2017-10-27T07:26:08.672Z,89.97
2017-10-27T07:27:08.675Z,90.06
2017-10-27T07:28:08.674Z,90.78
2017-10-27T07:29:08.675Z,91.26
2017-10-27T07:30:08.679Z,91.74
2017-10-27T07:31:08.680Z,91.64
2017-10-27T07:32:08.679Z,92.12
2017-10-27T07:33:08.679Z,91.74
2017-10-27T07:34:08.680Z,91.55
2017-10-27T07:35:08.681Z,91.55
2017-10-27T07:36:08.692Z,91.41
2017-10-27T07:37:08.694Z,90.83
2017-10-27T07:38:08.685Z,90.64
2017-10-27T07:39:08.737Z,91.02
2017-10-27T07:40:08.686Z,91.60
2017-10-27T07:41:08.738Z,91.60
2017-10-27T07:42:08.687Z,91.88
2017-10-27T07:43:08.688Z,92.74
2017-10-27T07:44:08.688Z,92.26
2017-10-27T07:45:08.689Z,92.26
2017-10-27T07:46:08.690Z,93.12
2017-10-27T07:47:08.690Z,92.74
2017-10-27T07:48:08.694Z,92.36
2017-10-27T07:49:08.742Z,92.55
2017-10-27T07:50:08.692Z,93.12
2017-10-27T07:51:08.714Z,92.83
2017-10-27T07:52:08.693Z,93.22
2017-10-27T07:53:08.693Z,93.60
2017-10-27T07:54:08.697Z,93.22
2017-10-27T07:55:08.694Z,93.31
2017-10-27T07:56:08.694Z,93.02
2017-10-27T07:57:08.700Z,92.65
2017-10-27T07:58:08.696Z,92.07
2017-10-27T07:59:08.697Z,92.93
2017-10-27T08:00:08.697Z,93.31
2017-10-27T08:01:08.698Z,93.02
2017-10-27T08:02:08.700Z,93.98
2017-10-27T08:03:08.701Z,93.88
2017-10-27T08:04:08.700Z,94.36
2017-10-27T08:05:08.701Z,93.51
2017-10-27T08:06:08.702Z,93.70
2017-10-27T08:07:08.702Z,93.79
2017-10-27T08:08:08.704Z,92.55
2017-10-27T08:09:08.703Z,91.69
2017-10-27T08:10:08.704Z,91.98
2017-10-27T08:11:08.705Z,92.55
2017-10-27T08:12:08.706Z,92.07
2017-10-27T08:13:08.706Z,92.93
2017-10-27T08:14:08.708Z,92.36
2017-10-27T08:15:08.708Z,92.65
2017-10-27T08:16:08.708Z,92.83
2017-10-27T08:17:08.710Z,93.12
2017-10-27T08:18:08.712Z,92.83
2017-10-27T08:19:08.711Z,93.02
2017-10-27T08:20:08.711Z,92.93
2017-10-27T08:21:08.712Z,92.83
2017-10-27T08:22:08.713Z,93.31
2017-10-27T08:23:08.715Z,93.51
2017-10-27T08:24:08.722Z,93.31
2017-10-27T08:25:08.715Z,92.36
2017-10-27T08:26:08.718Z,92.26
2017-10-27T08:27:08.718Z,91.21
2017-10-27T08:28:08.718Z,91.69
2017-10-27T08:29:08.720Z,91.74
2017-10-27T08:30:08.720Z,91.50
2017-10-27T08:31:08.723Z,91.78
2017-10-27T08:32:08.721Z,91.88
2017-10-27T08:33:08.722Z,92.26
2017-10-27T08:34:08.724Z,91.69
2017-10-27T08:35:08.725Z,92.17
2017-10-27T08:36:08.724Z,91.69
2017-10-27T08:37:08.725Z,91.88
2017-10-27T08:38:08.779Z,92.26
2017-10-27T08:39:08.727Z,91.60
2017-10-27T08:40:08.729Z,91.21
2017-10-27T08:41:08.729Z,91.69
2017-10-27T08:42:08.731Z,91.31
2017-10-27T08:43:08.732Z,90.64
2017-10-27T08:44:08.731Z,91.41
2017-10-27T08:45:08.732Z,90.93
2017-10-27T08:46:08.734Z,90.07
2017-10-27T08:47:08.733Z,90.36
2017-10-27T08:48:08.735Z,91.02
2017-10-27T08:49:08.745Z,90.83
2017-10-27T08:50:08.737Z,90.55
2017-10-27T08:51:08.736Z,90.36
2017-10-27T08:52:08.737Z,89.78
2017-10-27T08:53:08.738Z,90.17
2017-10-27T08:54:08.738Z,90.26
2017-10-27T08:55:08.740Z,90.55
2017-10-27T08:56:08.740Z,89.69
2017-10-27T08:57:08.739Z,89.88
2017-10-27T08:58:08.740Z,90.45
2017-10-27T08:59:08.742Z,89.97
2017-10-27T09:00:08.743Z,89.88
2017-10-27T09:01:08.741Z,90.64
2017-10-27T09:02:08.744Z,91.02
2017-10-27T09:03:08.744Z,90.36
2017-10-27T09:04:08.745Z,89.78
2017-10-27T09:05:08.743Z,90.64
2017-10-27T09:06:08.745Z,90.07
2017-10-27T09:07:08.745Z,90.07
2017-10-27T09:08:08.744Z,89.97
2017-10-27T09:09:08.745Z,90.55
2017-10-27T09:10:08.745Z,89.78
2017-10-27T09:11:08.748Z,89.31
2017-10-27T09:12:08.746Z,88.16
2017-10-27T09:13:08.749Z,88.07
2017-10-27T09:14:08.748Z,88.16
2017-10-27T09:15:08.749Z,88.26
2017-10-27T09:16:08.749Z,88.73
2017-10-27T09:17:08.749Z,88.45
2017-10-27T09:18:08.750Z,87.40
2017-10-27T09:19:08.750Z,86.82
2017-10-27T09:20:08.752Z,87.59
2017-10-27T09:21:08.752Z,87.21
2017-10-27T09:22:08.752Z,86.82
2017-10-27T09:23:08.754Z,86.92
2017-10-27T09:24:08.752Z,87.40
2017-10-27T09:25:08.754Z,87.49
2017-10-27T09:26:08.756Z,87.59
2017-10-27T09:27:08.756Z,87.97
2017-10-27T09:28:08.753Z,86.92
2017-10-27T09:29:08.809Z,86.92
2017-10-27T09:30:08.757Z,86.44
2017-10-27T09:31:08.758Z,86.20
2017-10-27T09:32:08.757Z,86.87
2017-10-27T09:33:08.760Z,85.91
2017-10-27T09:34:08.759Z,84.67
2017-10-27T09:35:08.759Z,84.77
2017-10-27T09:36:08.767Z,84.58
2017-10-27T09:37:08.760Z,84.06
2017-10-27T09:38:08.762Z,85.11
2017-10-27T09:39:08.763Z,85.49
2017-10-27T09:40:08.763Z,85.49
2017-10-27T09:41:08.765Z,86.92
2017-10-27T09:42:08.765Z,87.68
2017-10-27T09:43:08.766Z,88.07
2017-10-27T09:44:08.763Z,87.68
2017-10-27T09:45:08.766Z,88.92
2017-10-27T09:46:08.768Z,89.45
2017-10-27T09:47:08.767Z,91.07
2017-10-27T09:48:08.767Z,92.32
2017-10-27T09:49:08.768Z,93.36
2017-10-27T09:50:08.769Z,92.74
2017-10-27T09:51:08.771Z,94.74
2017-10-27T09:52:08.768Z,94.84
2017-10-27T09:53:08.768Z,94.56
2017-10-27T09:54:08.769Z,93.41
2017-10-27T09:55:08.768Z,92.84
2017-10-27T09:56:08.777Z,92.84
2017-10-27T09:57:08.819Z,92.84
2017-10-27T09:58:08.768Z,93.60
2017-10-27T09:59:08.768Z,93.98
2017-10-27T10:00:08.768Z,94.27
2017-10-27T10:01:08.767Z,93.41
2017-10-27T10:02:08.769Z,93.60
2017-10-27T10:03:08.768Z,93.60
2017-10-27T10:04:08.768Z,94.17
2017-10-27T10:05:08.767Z,94.65
2017-10-27T10:06:08.768Z,95.79
2017-10-27T10:07:08.766Z,96.27
2017-10-27T10:08:08.766Z,96.36
2017-10-27T10:09:08.765Z,96.46
2017-10-27T10:10:08.766Z,95.51
2017-10-27T10:11:08.766Z,94.03
2017-10-27T10:12:08.765Z,93.74
2017-10-27T10:13:08.764Z,93.84
2017-10-27T10:14:08.764Z,93.03
2017-10-27T10:15:08.764Z,93.32
2017-10-27T10:16:08.764Z,93.70
2017-10-27T10:17:08.762Z,93.32
2017-10-27T10:18:08.763Z,93.13
2017-10-27T10:19:08.762Z,93.03
2017-10-27T10:20:08.760Z,92.99
2017-10-27T10:21:08.759Z,93.74
2017-10-27T10:22:08.760Z,93.32
2017-10-27T10:23:08.759Z,93.27
2017-10-27T10:24:08.757Z,93.55
2017-10-27T10:25:08.758Z,93.94
2017-10-27T10:26:08.756Z,93.65
2017-10-27T10:27:08.756Z,93.27
2017-10-27T10:28:08.755Z,93.18
2017-10-27T10:29:08.755Z,93.84
2017-10-27T10:30:08.754Z,93.94
2017-10-27T10:31:08.753Z,93.84
2017-10-27T10:32:08.753Z,94.42
2017-10-27T10:33:08.750Z,93.84
2017-10-27T10:34:08.751Z,93.84
2017-10-27T10:35:08.750Z,93.74
2017-10-27T10:36:08.748Z,94.03
2017-10-27T10:37:08.746Z,94.32
2017-10-27T10:38:08.747Z,94.79
2017-10-27T10:39:08.746Z,94.51
2017-10-27T10:40:08.755Z,95.46
2017-10-27T10:41:08.745Z,94.32
2017-10-27T10:42:08.745Z,94.22
2017-10-27T10:43:08.743Z,94.79
2017-10-27T10:44:08.742Z,94.60
2017-10-27T10:45:08.741Z,94.89
2017-10-27T10:46:08.740Z,94.70
2017-10-27T10:47:08.740Z,94.79
2017-10-27T10:48:08.738Z,94.98
2017-10-27T10:49:08.738Z,95.46
2017-10-27T10:50:08.737Z,94.79
2017-10-27T10:51:08.736Z,94.70
2017-10-27T10:52:08.744Z,95.08
2017-10-27T10:53:08.734Z,94.22
2017-10-27T10:54:08.735Z,93.65
2017-10-27T10:55:08.735Z,93.18
2017-10-27T10:56:08.731Z,92.41
2017-10-27T10:57:08.738Z,92.13
2017-10-27T10:58:08.730Z,92.70
2017-10-27T10:59:08.730Z,91.84
2017-10-27T11:00:08.736Z,91.22
2017-10-27T11:01:08.727Z,90.84
2017-10-27T11:02:08.726Z,90.84
2017-10-27T11:03:08.726Z,91.22
2017-10-27T11:04:08.724Z,91.03
2017-10-27T11:05:08.724Z,91.32
2017-10-27T11:06:08.722Z,90.47
2017-10-27T11:07:08.721Z,91.42
2017-10-27T11:08:08.720Z,90.84
2017-10-27T11:09:08.718Z,91.51
2017-10-27T11:10:08.768Z,91.32
2017-10-27T11:11:08.717Z,91.03
2017-10-27T11:12:08.714Z,90.94
2017-10-27T11:13:08.715Z,91.22
2017-10-27T11:14:08.712Z,91.51
2017-10-27T11:15:08.716Z,91.61
2017-10-27T11:16:08.709Z,91.42
2017-10-27T11:17:08.711Z,91.32
2017-10-27T11:18:08.708Z,91.13
2017-10-27T11:19:08.706Z,91.32
2017-10-27T11:20:08.705Z,91.03
2017-10-27T11:21:08.754Z,90.94
2017-10-27T11:22:08.703Z,90.47
2017-10-27T11:23:08.703Z,91.22
2017-10-27T11:24:08.700Z,90.47
2017-10-27T11:25:08.700Z,90.84
2017-10-27T11:26:08.698Z,90.75
2017-10-27T11:27:08.696Z,91.32
2017-10-27T11:28:08.695Z,90.56
2017-10-27T11:29:08.693Z,90.84
2017-10-27T11:30:08.693Z,91.03
2017-10-27T11:31:08.692Z,91.51
2017-10-27T11:32:08.689Z,91.99
2017-10-27T11:33:08.689Z,92.36
2017-10-27T11:34:08.687Z,92.94
2017-10-27T11:35:08.686Z,92.65
2017-10-27T11:36:08.684Z,91.51
2017-10-27T11:37:08.732Z,92.36
2017-10-27T11:38:08.681Z,92.36
2017-10-27T11:39:08.686Z,91.22
2017-10-27T11:40:08.684Z,91.13
2017-10-27T11:41:08.678Z,90.94
2017-10-27T11:42:08.679Z,90.94
2017-10-27T11:43:08.676Z,90.08
2017-10-27T11:44:08.673Z,89.51
2017-10-27T11:45:08.674Z,88.94
2017-10-27T11:46:08.672Z,89.42
2017-10-27T11:47:08.689Z,89.70
2017-10-27T11:48:08.669Z,89.89
2017-10-27T11:49:08.668Z,89.80
2017-10-27T11:50:08.667Z,90.28
2017-10-27T11:51:08.666Z,90.37
2017-10-27T11:52:08.664Z,90.08
2017-10-27T11:53:08.663Z,90.18
2017-10-27T11:54:08.663Z,90.18
2017-10-27T11:55:08.662Z,90.56
2017-10-27T11:56:08.660Z,91.13
2017-10-27T11:57:08.659Z,90.56
2017-10-27T11:58:08.658Z,91.03
2017-10-27T11:59:08.660Z,91.42
2017-10-27T12:00:08.655Z,90.94
2017-10-27T12:01:08.655Z,90.84
2017-10-27T12:02:08.654Z,91.61
2017-10-27T12:03:08.652Z,90.37
2017-10-27T12:04:08.658Z,90.13
2017-10-27T12:05:08.650Z,89.65
2017-10-27T12:06:08.649Z,89.65
2017-10-27T12:07:08.647Z,89.94
2017-10-27T12:08:08.646Z,89.27
2017-10-27T12:09:08.645Z,89.75
2017-10-27T12:10:08.645Z,91.17
2017-10-27T12:11:08.648Z,90.42
2017-10-27T12:12:08.647Z,90.42
2017-10-27T12:13:08.642Z,90.03
2017-10-27T12:14:08.641Z,89.84
2017-10-27T12:15:08.640Z,89.94
2017-10-27T12:16:08.638Z,90.70
2017-10-27T12:17:08.639Z,89.47
2017-10-27T12:18:08.639Z,88.89
2017-10-27T12:19:08.639Z,88.60
2017-10-27T12:20:08.639Z,88.13
2017-10-27T12:21:08.635Z,89.37
2017-10-27T12:22:08.636Z,89.37
2017-10-27T12:23:08.634Z,90.03
2017-10-27T12:24:08.632Z,90.99
2017-10-27T12:25:08.633Z,90.80
2017-10-27T12:26:08.631Z,91.37
2017-10-27T12:27:08.642Z,90.51
2017-10-27T12:28:08.632Z,89.47
2017-10-27T12:29:08.629Z,89.27
2017-10-27T12:30:08.629Z,89.65
2017-10-27T12:31:08.628Z,90.51
2017-10-27T12:32:08.626Z,90.13
2017-10-27T12:33:08.626Z,87.75
2017-10-27T12:34:08.626Z,86.99
2017-10-27T12:35:08.625Z,87.56
2017-10-27T12:36:08.624Z,88.42
2017-10-27T12:37:08.625Z,87.65
2017-10-27T12:38:08.622Z,88.70
2017-10-27T12:39:08.622Z,89.18
2017-10-27T12:40:08.622Z,87.85
2017-10-27T12:41:08.621Z,87.37
2017-10-27T12:42:08.620Z,88.32
2017-10-27T12:43:08.619Z,89.27
2017-10-27T12:44:08.618Z,88.51
2017-10-27T12:45:08.617Z,88.32
2017-10-27T12:46:08.618Z,88.70
2017-10-27T12:47:08.617Z,88.60
2017-10-27T12:48:08.615Z,87.94
2017-10-27T12:49:08.615Z,88.79
2017-10-27T12:50:08.615Z,89.04
2017-10-27T12:51:08.614Z,88.99
2017-10-27T12:52:08.662Z,89.27